sensor_id;sensor_type;location;lat;lon;timestamp;P1;durP1;ratioP1;P2;durP2;ratioP2
57643;SDS011;43474;46.510;6.686;2022-11-04T00:01:24;1.23;;;0.63;;
57643;SDS011;43474;46.510;6.686;2022-11-04T00:03:50;0.80;;;0.50;;
57643;SDS011;43474;46.510;6.686;2022-11-04T00:06:17;0.50;;;0.38;;
57643;SDS011;43474;46.510;6.686;2022-11-04T00:08:46;1.05;;;0.20;;
57643;SDS011;43474;46.510;6.686;2022-11-04T00:11:16;1.17;;;0.40;;
57643;SDS011;43474;46.510;6.686;2022-11-04T00:14:00;0.35;;;0.20;;
57643;SDS011;43474;46.510;6.686;2022-11-04T00:16:26;0.68;;;0.40;;
57643;SDS011;43474;46.510;6.686;2022-11-04T00:19:10;0.55;;;0.30;;
57643;SDS011;43474;46.510;6.686;2022-11-04T00:21:36;0.20;;;0.20;;
57643;SDS011;43474;46.510;6.686;2022-11-04T00:24:20;2.00;;;0.40;;
57643;SDS011;43474;46.510;6.686;2022-11-04T00:27:04;3.17;;;0.30;;
57643;SDS011;43474;46.510;6.686;2022-11-04T00:29:48;0.30;;;0.20;;
57643;SDS011;43474;46.510;6.686;2022-11-04T00:32:14;0.40;;;0.10;;
57643;SDS011;43474;46.510;6.686;2022-11-04T00:34:58;2.70;;;0.30;;
57643;SDS011;43474;46.510;6.686;2022-11-04T00:37:24;0.90;;;0.30;;
57643;SDS011;43474;46.510;6.686;2022-11-04T00:39:49;3.03;;;0.38;;
57643;SDS011;43474;46.510;6.686;2022-11-04T00:42:15;1.17;;;0.38;;
57643;SDS011;43474;46.510;6.686;2022-11-04T00:44:40;0.88;;;0.25;;
57643;SDS011;43474;46.510;6.686;2022-11-04T00:47:06;1.70;;;0.20;;
57643;SDS011;43474;46.510;6.686;2022-11-04T00:49:31;0.35;;;0.25;;
57643;SDS011;43474;46.510;6.686;2022-11-04T00:51:57;0.73;;;0.30;;
57643;SDS011;43474;46.510;6.686;2022-11-04T00:54:22;0.28;;;0.20;;
57643;SDS011;43474;46.510;6.686;2022-11-04T00:56:48;0.85;;;0.40;;
57643;SDS011;43474;46.510;6.686;2022-11-04T00:59:13;0.75;;;0.40;;
57643;SDS011;43474;46.510;6.686;2022-11-04T01:01:40;0.65;;;0.22;;
57643;SDS011;43474;46.510;6.686;2022-11-04T01:04:05;0.68;;;0.22;;
57643;SDS011;43474;46.510;6.686;2022-11-04T01:06:31;1.50;;;0.20;;
57643;SDS011;43474;46.510;6.686;2022-11-04T01:08:58;0.55;;;0.30;;
57643;SDS011;43474;46.510;6.686;2022-11-04T01:11:26;0.80;;;0.30;;
57643;SDS011;43474;46.510;6.686;2022-11-04T01:13:53;0.57;;;0.30;;
57643;SDS011;43474;46.510;6.686;2022-11-04T01:16:20;0.35;;;0.20;;
57643;SDS011;43474;46.510;6.686;2022-11-04T01:18:46;0.63;;;0.30;;
57643;SDS011;43474;46.510;6.686;2022-11-04T01:21:12;1.92;;;0.30;;
57643;SDS011;43474;46.510;6.686;2022-11-04T01:23:40;2.28;;;0.40;;
57643;SDS011;43474;46.510;6.686;2022-11-04T01:26:14;0.50;;;0.32;;
57643;SDS011;43474;46.510;6.686;2022-11-04T01:28:42;0.73;;;0.20;;
57643;SDS011;43474;46.510;6.686;2022-11-04T01:31:09;1.45;;;0.32;;
57643;SDS011;43474;46.510;6.686;2022-11-04T01:33:39;0.10;;;0.10;;
57643;SDS011;43474;46.510;6.686;2022-11-04T01:36:06;0.70;;;0.45;;
57643;SDS011;43474;46.510;6.686;2022-11-04T01:38:33;0.60;;;0.20;;
57643;SDS011;43474;46.510;6.686;2022-11-04T01:40:59;2.17;;;0.47;;
57643;SDS011;43474;46.510;6.686;2022-11-04T01:46:10;0.45;;;0.30;;
57643;SDS011;43474;46.510;6.686;2022-11-04T01:48:43;2.20;;;0.30;;
57643;SDS011;43474;46.510;6.686;2022-11-04T01:51:09;0.85;;;0.28;;
57643;SDS011;43474;46.510;6.686;2022-11-04T01:53:36;1.77;;;0.30;;
57643;SDS011;43474;46.510;6.686;2022-11-04T01:56:06;0.70;;;0.20;;
57643;SDS011;43474;46.510;6.686;2022-11-04T01:58:40;0.28;;;0.28;;
57643;SDS011;43474;46.510;6.686;2022-11-04T02:01:10;0.98;;;0.30;;
57643;SDS011;43474;46.510;6.686;2022-11-04T02:03:42;1.73;;;0.40;;
57643;SDS011;43474;46.510;6.686;2022-11-04T02:06:13;0.57;;;0.30;;
57643;SDS011;43474;46.510;6.686;2022-11-04T02:08:41;1.65;;;0.40;;
57643;SDS011;43474;46.510;6.686;2022-11-04T02:11:07;1.13;;;0.30;;
57643;SDS011;43474;46.510;6.686;2022-11-04T02:13:33;1.30;;;0.30;;
57643;SDS011;43474;46.510;6.686;2022-11-04T02:16:05;0.22;;;0.22;;
57643;SDS011;43474;46.510;6.686;2022-11-04T02:24:32;0.32;;;0.20;;
57643;SDS011;43474;46.510;6.686;2022-11-04T02:30:14;0.63;;;0.35;;
57643;SDS011;43474;46.510;6.686;2022-11-04T02:35:39;0.28;;;0.20;;
57643;SDS011;43474;46.510;6.686;2022-11-04T02:40:58;0.52;;;0.20;;
57643;SDS011;43474;46.510;6.686;2022-11-04T02:43:37;0.75;;;0.30;;
57643;SDS011;43474;46.510;6.686;2022-11-04T02:46:07;1.00;;;0.40;;
57643;SDS011;43474;46.510;6.686;2022-11-04T02:48:45;0.45;;;0.20;;
57643;SDS011;43474;46.510;6.686;2022-11-04T02:51:36;2.55;;;0.40;;
57643;SDS011;43474;46.510;6.686;2022-11-04T02:54:08;0.20;;;0.20;;
57643;SDS011;43474;46.510;6.686;2022-11-04T02:56:40;0.35;;;0.20;;
57643;SDS011;43474;46.510;6.686;2022-11-04T02:59:13;1.67;;;0.50;;
57643;SDS011;43474;46.510;6.686;2022-11-04T03:01:44;3.58;;;0.47;;
57643;SDS011;43474;46.510;6.686;2022-11-04T03:04:13;1.98;;;0.55;;
57643;SDS011;43474;46.510;6.686;2022-11-04T03:06:43;2.00;;;0.30;;
57643;SDS011;43474;46.510;6.686;2022-11-04T03:09:12;2.88;;;0.28;;
57643;SDS011;43474;46.510;6.686;2022-11-04T03:11:42;1.33;;;0.22;;
57643;SDS011;43474;46.510;6.686;2022-11-04T03:14:12;0.52;;;0.30;;
57643;SDS011;43474;46.510;6.686;2022-11-04T03:16:46;0.75;;;0.20;;
57643;SDS011;43474;46.510;6.686;2022-11-04T03:19:15;2.40;;;0.55;;
57643;SDS011;43474;46.510;6.686;2022-11-04T03:21:56;0.68;;;0.30;;
57643;SDS011;43474;46.510;6.686;2022-11-04T03:24:25;0.65;;;0.50;;
57643;SDS011;43474;46.510;6.686;2022-11-04T03:26:54;0.40;;;0.30;;
57643;SDS011;43474;46.510;6.686;2022-11-04T03:29:26;0.25;;;0.20;;
57643;SDS011;43474;46.510;6.686;2022-11-04T03:34:58;1.57;;;0.40;;
57643;SDS011;43474;46.510;6.686;2022-11-04T03:37:24;0.28;;;0.28;;
57643;SDS011;43474;46.510;6.686;2022-11-04T03:39:49;1.23;;;0.35;;
57643;SDS011;43474;46.510;6.686;2022-11-04T03:42:15;1.27;;;0.17;;
57643;SDS011;43474;46.510;6.686;2022-11-04T03:44:47;0.30;;;0.30;;
57643;SDS011;43474;46.510;6.686;2022-11-04T03:47:14;0.80;;;0.32;;
57643;SDS011;43474;46.510;6.686;2022-11-04T03:49:42;2.25;;;0.20;;
57643;SDS011;43474;46.510;6.686;2022-11-04T03:52:15;1.50;;;0.32;;
57643;SDS011;43474;46.510;6.686;2022-11-04T03:54:43;2.40;;;0.47;;
57643;SDS011;43474;46.510;6.686;2022-11-04T04:02:24;1.75;;;0.35;;
57643;SDS011;43474;46.510;6.686;2022-11-04T04:04:59;1.30;;;0.40;;
57643;SDS011;43474;46.510;6.686;2022-11-04T04:07:37;0.63;;;0.30;;
57643;SDS011;43474;46.510;6.686;2022-11-04T04:13:18;1.67;;;0.50;;
57643;SDS011;43474;46.510;6.686;2022-11-04T04:18:47;2.38;;;0.40;;
57643;SDS011;43474;46.510;6.686;2022-11-04T04:21:18;2.80;;;0.45;;
57643;SDS011;43474;46.510;6.686;2022-11-04T04:23:47;3.15;;;0.30;;
57643;SDS011;43474;46.510;6.686;2022-11-04T04:26:41;1.92;;;0.50;;
57643;SDS011;43474;46.510;6.686;2022-11-04T04:29:27;1.38;;;0.47;;
57643;SDS011;43474;46.510;6.686;2022-11-04T04:31:53;1.50;;;0.60;;
57643;SDS011;43474;46.510;6.686;2022-11-04T04:34:23;10.45;;;1.08;;
57643;SDS011;43474;46.510;6.686;2022-11-04T04:36:52;1.30;;;0.50;;
57643;SDS011;43474;46.510;6.686;2022-11-04T04:39:39;1.33;;;0.38;;
57643;SDS011;43474;46.510;6.686;2022-11-04T04:42:29;2.25;;;0.70;;
57643;SDS011;43474;46.510;6.686;2022-11-04T04:45:19;3.30;;;0.50;;
57643;SDS011;43474;46.510;6.686;2022-11-04T04:47:48;1.40;;;0.30;;
57643;SDS011;43474;46.510;6.686;2022-11-04T04:50:14;1.63;;;0.60;;
57643;SDS011;43474;46.510;6.686;2022-11-04T04:52:44;3.70;;;0.57;;
57643;SDS011;43474;46.510;6.686;2022-11-04T04:55:12;1.38;;;0.55;;
57643;SDS011;43474;46.510;6.686;2022-11-04T04:57:38;1.73;;;0.40;;
57643;SDS011;43474;46.510;6.686;2022-11-04T05:00:05;2.35;;;0.35;;
57643;SDS011;43474;46.510;6.686;2022-11-04T05:02:32;0.82;;;0.30;;
57643;SDS011;43474;46.510;6.686;2022-11-04T05:04:59;1.20;;;0.82;;
57643;SDS011;43474;46.510;6.686;2022-11-04T05:07:25;0.63;;;0.43;;
57643;SDS011;43474;46.510;6.686;2022-11-04T05:09:51;2.00;;;0.50;;
57643;SDS011;43474;46.510;6.686;2022-11-04T05:12:16;1.45;;;0.60;;
57643;SDS011;43474;46.510;6.686;2022-11-04T05:14:42;0.90;;;0.40;;
57643;SDS011;43474;46.510;6.686;2022-11-04T05:17:08;1.38;;;0.40;;
57643;SDS011;43474;46.510;6.686;2022-11-04T05:19:34;0.93;;;0.40;;
57643;SDS011;43474;46.510;6.686;2022-11-04T05:22:00;1.67;;;0.50;;
57643;SDS011;43474;46.510;6.686;2022-11-04T05:24:26;2.95;;;0.38;;
57643;SDS011;43474;46.510;6.686;2022-11-04T05:26:52;1.30;;;0.40;;
57643;SDS011;43474;46.510;6.686;2022-11-04T05:29:17;2.40;;;0.50;;
57643;SDS011;43474;46.510;6.686;2022-11-04T05:31:43;1.95;;;0.68;;
57643;SDS011;43474;46.510;6.686;2022-11-04T05:34:09;3.70;;;0.57;;
57643;SDS011;43474;46.510;6.686;2022-11-04T05:36:35;1.73;;;0.40;;
57643;SDS011;43474;46.510;6.686;2022-11-04T05:39:01;1.17;;;0.32;;
57643;SDS011;43474;46.510;6.686;2022-11-04T05:41:27;1.73;;;0.55;;
57643;SDS011;43474;46.510;6.686;2022-11-04T05:43:54;1.05;;;0.40;;
57643;SDS011;43474;46.510;6.686;2022-11-04T05:46:23;2.03;;;0.50;;
57643;SDS011;43474;46.510;6.686;2022-11-04T05:48:50;0.90;;;0.45;;
57643;SDS011;43474;46.510;6.686;2022-11-04T05:51:17;0.73;;;0.40;;
57643;SDS011;43474;46.510;6.686;2022-11-04T05:53:45;0.57;;;0.38;;
57643;SDS011;43474;46.510;6.686;2022-11-04T05:56:11;1.65;;;0.43;;
57643;SDS011;43474;46.510;6.686;2022-11-04T05:58:36;1.92;;;0.60;;
57643;SDS011;43474;46.510;6.686;2022-11-04T06:03:57;3.65;;;0.60;;
57643;SDS011;43474;46.510;6.686;2022-11-04T06:06:26;3.13;;;0.60;;
57643;SDS011;43474;46.510;6.686;2022-11-04T06:08:53;0.60;;;0.60;;
57643;SDS011;43474;46.510;6.686;2022-11-04T06:11:19;2.42;;;0.70;;
57643;SDS011;43474;46.510;6.686;2022-11-04T06:13:46;4.03;;;1.10;;
57643;SDS011;43474;46.510;6.686;2022-11-04T06:16:12;4.25;;;1.02;;
57643;SDS011;43474;46.510;6.686;2022-11-04T06:18:38;2.55;;;0.70;;
57643;SDS011;43474;46.510;6.686;2022-11-04T06:23:45;3.40;;;0.88;;
57643;SDS011;43474;46.510;6.686;2022-11-04T06:26:11;2.83;;;1.00;;
57643;SDS011;43474;46.510;6.686;2022-11-04T06:28:37;1.65;;;0.90;;
57643;SDS011;43474;46.510;6.686;2022-11-04T06:31:04;2.55;;;1.10;;
57643;SDS011;43474;46.510;6.686;2022-11-04T06:33:31;2.10;;;1.17;;
57643;SDS011;43474;46.510;6.686;2022-11-04T06:36:01;4.03;;;1.70;;
57643;SDS011;43474;46.510;6.686;2022-11-04T06:38:28;3.28;;;1.90;;
57643;SDS011;43474;46.510;6.686;2022-11-04T06:40:56;3.45;;;1.50;;
57643;SDS011;43474;46.510;6.686;2022-11-04T06:43:21;4.10;;;1.50;;
57643;SDS011;43474;46.510;6.686;2022-11-04T06:46:00;2.42;;;1.40;;
57643;SDS011;43474;46.510;6.686;2022-11-04T06:48:26;2.28;;;1.10;;
57643;SDS011;43474;46.510;6.686;2022-11-04T06:50:55;1.60;;;1.15;;
57643;SDS011;43474;46.510;6.686;2022-11-04T06:53:22;3.05;;;1.25;;
57643;SDS011;43474;46.510;6.686;2022-11-04T06:55:48;3.40;;;1.27;;
57643;SDS011;43474;46.510;6.686;2022-11-04T06:58:13;2.75;;;1.42;;
57643;SDS011;43474;46.510;6.686;2022-11-04T07:00:39;4.13;;;1.08;;
57643;SDS011;43474;46.510;6.686;2022-11-04T07:03:04;1.70;;;1.00;;
57643;SDS011;43474;46.510;6.686;2022-11-04T07:05:33;1.60;;;1.10;;
57643;SDS011;43474;46.510;6.686;2022-11-04T07:07:59;2.40;;;1.10;;
57643;SDS011;43474;46.510;6.686;2022-11-04T07:10:24;2.97;;;1.30;;
57643;SDS011;43474;46.510;6.686;2022-11-04T07:12:50;1.92;;;1.05;;
57643;SDS011;43474;46.510;6.686;2022-11-04T07:15:15;1.92;;;1.40;;
57643;SDS011;43474;46.510;6.686;2022-11-04T07:17:41;3.42;;;1.17;;
57643;SDS011;43474;46.510;6.686;2022-11-04T07:20:08;2.88;;;1.20;;
57643;SDS011;43474;46.510;6.686;2022-11-04T07:22:37;2.25;;;1.20;;
57643;SDS011;43474;46.510;6.686;2022-11-04T07:25:03;1.48;;;1.00;;
57643;SDS011;43474;46.510;6.686;2022-11-04T07:27:29;1.70;;;1.10;;
57643;SDS011;43474;46.510;6.686;2022-11-04T07:29:55;5.15;;;1.52;;
57643;SDS011;43474;46.510;6.686;2022-11-04T07:32:21;1.83;;;1.40;;
57643;SDS011;43474;46.510;6.686;2022-11-04T07:34:46;3.95;;;1.52;;
57643;SDS011;43474;46.510;6.686;2022-11-04T07:37:12;3.20;;;1.10;;
57643;SDS011;43474;46.510;6.686;2022-11-04T07:39:37;3.83;;;1.15;;
57643;SDS011;43474;46.510;6.686;2022-11-04T07:42:03;2.80;;;1.08;;
57643;SDS011;43474;46.510;6.686;2022-11-04T07:44:28;3.20;;;0.98;;
57643;SDS011;43474;46.510;6.686;2022-11-04T07:46:54;3.72;;;1.67;;
57643;SDS011;43474;46.510;6.686;2022-11-04T07:49:20;2.10;;;1.00;;
57643;SDS011;43474;46.510;6.686;2022-11-04T07:51:45;1.88;;;0.80;;
57643;SDS011;43474;46.510;6.686;2022-11-04T07:54:12;2.70;;;1.02;;
57643;SDS011;43474;46.510;6.686;2022-11-04T07:56:38;3.22;;;1.08;;
57643;SDS011;43474;46.510;6.686;2022-11-04T07:59:04;1.65;;;0.85;;
57643;SDS011;43474;46.510;6.686;2022-11-04T08:01:31;1.70;;;0.95;;
57643;SDS011;43474;46.510;6.686;2022-11-04T08:03:57;3.65;;;0.93;;
57643;SDS011;43474;46.510;6.686;2022-11-04T08:06:23;3.17;;;1.27;;
57643;SDS011;43474;46.510;6.686;2022-11-04T08:08:49;3.35;;;0.98;;
57643;SDS011;43474;46.510;6.686;2022-11-04T08:11:18;1.08;;;0.63;;
57643;SDS011;43474;46.510;6.686;2022-11-04T08:13:46;2.75;;;0.90;;
57643;SDS011;43474;46.510;6.686;2022-11-04T08:16:12;1.35;;;0.75;;
57643;SDS011;43474;46.510;6.686;2022-11-04T08:18:41;6.20;;;1.05;;
57643;SDS011;43474;46.510;6.686;2022-11-04T08:21:07;2.00;;;0.80;;
57643;SDS011;43474;46.510;6.686;2022-11-04T08:23:32;1.83;;;1.00;;
57643;SDS011;43474;46.510;6.686;2022-11-04T08:25:59;1.55;;;0.85;;
57643;SDS011;43474;46.510;6.686;2022-11-04T08:28:25;2.45;;;1.08;;
57643;SDS011;43474;46.510;6.686;2022-11-04T08:30:52;2.53;;;0.95;;
57643;SDS011;43474;46.510;6.686;2022-11-04T08:33:24;2.13;;;1.33;;
57643;SDS011;43474;46.510;6.686;2022-11-04T08:35:51;1.95;;;1.08;;
57643;SDS011;43474;46.510;6.686;2022-11-04T08:38:17;2.15;;;1.10;;
57643;SDS011;43474;46.510;6.686;2022-11-04T08:40:43;1.55;;;0.82;;
57643;SDS011;43474;46.510;6.686;2022-11-04T08:43:09;3.20;;;1.05;;
57643;SDS011;43474;46.510;6.686;2022-11-04T08:45:42;2.15;;;1.05;;
57643;SDS011;43474;46.510;6.686;2022-11-04T08:48:10;1.48;;;1.08;;
57643;SDS011;43474;46.510;6.686;2022-11-04T08:50:36;1.08;;;0.60;;
57643;SDS011;43474;46.510;6.686;2022-11-04T08:53:03;0.88;;;0.75;;
57643;SDS011;43474;46.510;6.686;2022-11-04T08:55:29;1.63;;;0.93;;
57643;SDS011;43474;46.510;6.686;2022-11-04T08:57:55;2.95;;;1.17;;
57643;SDS011;43474;46.510;6.686;2022-11-04T09:00:20;1.67;;;0.90;;
57643;SDS011;43474;46.510;6.686;2022-11-04T09:02:46;2.33;;;0.93;;
57643;SDS011;43474;46.510;6.686;2022-11-04T09:05:12;2.08;;;1.10;;
57643;SDS011;43474;46.510;6.686;2022-11-04T09:07:39;5.32;;;1.20;;
57643;SDS011;43474;46.510;6.686;2022-11-04T09:10:06;3.95;;;0.90;;
57643;SDS011;43474;46.510;6.686;2022-11-04T09:12:32;2.67;;;0.77;;
57643;SDS011;43474;46.510;6.686;2022-11-04T09:14:57;2.35;;;0.88;;
57643;SDS011;43474;46.510;6.686;2022-11-04T09:17:23;1.48;;;0.77;;
57643;SDS011;43474;46.510;6.686;2022-11-04T09:19:49;2.95;;;0.80;;
57643;SDS011;43474;46.510;6.686;2022-11-04T09:22:15;3.00;;;0.60;;
57643;SDS011;43474;46.510;6.686;2022-11-04T09:24:40;3.42;;;0.90;;
57643;SDS011;43474;46.510;6.686;2022-11-04T09:27:06;6.68;;;0.98;;
57643;SDS011;43474;46.510;6.686;2022-11-04T09:29:32;0.98;;;0.75;;
57643;SDS011;43474;46.510;6.686;2022-11-04T09:31:58;2.90;;;1.25;;
57643;SDS011;43474;46.510;6.686;2022-11-04T09:34:24;2.72;;;0.80;;
57643;SDS011;43474;46.510;6.686;2022-11-04T09:36:53;3.25;;;0.80;;
57643;SDS011;43474;46.510;6.686;2022-11-04T09:39:19;3.15;;;0.73;;
57643;SDS011;43474;46.510;6.686;2022-11-04T09:41:48;1.75;;;0.90;;
57643;SDS011;43474;46.510;6.686;2022-11-04T09:46:50;2.03;;;0.90;;
57643;SDS011;43474;46.510;6.686;2022-11-04T09:49:18;3.88;;;0.90;;
57643;SDS011;43474;46.510;6.686;2022-11-04T09:51:46;4.15;;;1.13;;
57643;SDS011;43474;46.510;6.686;2022-11-04T09:54:19;3.35;;;0.70;;
57643;SDS011;43474;46.510;6.686;2022-11-04T09:56:48;1.20;;;0.80;;
57643;SDS011;43474;46.510;6.686;2022-11-04T09:59:33;3.47;;;0.70;;
57643;SDS011;43474;46.510;6.686;2022-11-04T10:10:50;2.58;;;1.10;;
57643;SDS011;43474;46.510;6.686;2022-11-04T10:18:57;2.13;;;0.98;;
57643;SDS011;43474;46.510;6.686;2022-11-04T10:24:41;2.40;;;0.80;;
57643;SDS011;43474;46.510;6.686;2022-11-04T10:27:16;0.88;;;0.60;;
57643;SDS011;43474;46.510;6.686;2022-11-04T10:29:49;3.25;;;0.93;;
57643;SDS011;43474;46.510;6.686;2022-11-04T10:32:37;3.50;;;0.60;;
57643;SDS011;43474;46.510;6.686;2022-11-04T10:37:36;3.65;;;1.00;;
57643;SDS011;43474;46.510;6.686;2022-11-04T10:40:26;1.83;;;0.70;;
57643;SDS011;43474;46.510;6.686;2022-11-04T10:42:51;2.08;;;0.70;;
57643;SDS011;43474;46.510;6.686;2022-11-04T10:45:19;1.10;;;0.60;;
57643;SDS011;43474;46.510;6.686;2022-11-04T10:48:00;3.38;;;0.73;;
57643;SDS011;43474;46.510;6.686;2022-11-04T10:50:35;1.85;;;0.60;;
57643;SDS011;43474;46.510;6.686;2022-11-04T10:55:48;2.13;;;0.80;;
57643;SDS011;43474;46.510;6.686;2022-11-04T10:58:26;3.00;;;1.00;;
57643;SDS011;43474;46.510;6.686;2022-11-04T11:00:55;2.92;;;0.82;;
57643;SDS011;43474;46.510;6.686;2022-11-04T11:03:31;0.63;;;0.60;;
57643;SDS011;43474;46.510;6.686;2022-11-04T11:06:21;2.33;;;0.90;;
57643;SDS011;43474;46.510;6.686;2022-11-04T11:08:58;2.67;;;1.00;;
57643;SDS011;43474;46.510;6.686;2022-11-04T11:11:44;3.88;;;1.10;;
57643;SDS011;43474;46.510;6.686;2022-11-04T11:14:19;1.48;;;0.85;;
57643;SDS011;43474;46.510;6.686;2022-11-04T11:17:15;1.75;;;0.70;;
57643;SDS011;43474;46.510;6.686;2022-11-04T11:19:49;5.82;;;0.75;;
57643;SDS011;43474;46.510;6.686;2022-11-04T11:22:35;2.00;;;0.70;;
57643;SDS011;43474;46.510;6.686;2022-11-04T11:27:48;1.92;;;0.85;;
57643;SDS011;43474;46.510;6.686;2022-11-04T11:30:27;3.03;;;0.80;;
57643;SDS011;43474;46.510;6.686;2022-11-04T11:33:05;2.65;;;0.90;;
57643;SDS011;43474;46.510;6.686;2022-11-04T11:35:40;1.83;;;0.80;;
57643;SDS011;43474;46.510;6.686;2022-11-04T11:43:35;1.77;;;0.90;;
57643;SDS011;43474;46.510;6.686;2022-11-04T11:46:04;3.22;;;1.00;;
57643;SDS011;43474;46.510;6.686;2022-11-04T11:51:10;2.28;;;1.10;;
57643;SDS011;43474;46.510;6.686;2022-11-04T11:53:37;5.25;;;1.08;;
57643;SDS011;43474;46.510;6.686;2022-11-04T11:59:03;4.15;;;1.10;;
57643;SDS011;43474;46.510;6.686;2022-11-04T12:01:41;3.28;;;1.00;;
57643;SDS011;43474;46.510;6.686;2022-11-04T12:04:11;3.20;;;1.15;;
57643;SDS011;43474;46.510;6.686;2022-11-04T12:09:50;1.45;;;1.10;;
57643;SDS011;43474;46.510;6.686;2022-11-04T12:21:08;2.33;;;0.75;;
57643;SDS011;43474;46.510;6.686;2022-11-04T12:23:55;1.52;;;0.60;;
57643;SDS011;43474;46.510;6.686;2022-11-04T12:31:57;5.63;;;1.00;;
57643;SDS011;43474;46.510;6.686;2022-11-04T12:35:22;1.58;;;0.63;;
57643;SDS011;43474;46.510;6.686;2022-11-04T12:37:29;0.40;;;0.40;;
57643;SDS011;43474;46.510;6.686;2022-11-04T12:40:08;0.50;;;0.35;;
57643;SDS011;43474;46.510;6.686;2022-11-04T12:42:42;1.88;;;0.50;;
57643;SDS011;43474;46.510;6.686;2022-11-04T12:45:31;2.33;;;0.45;;
57643;SDS011;43474;46.510;6.686;2022-11-04T12:48:03;0.93;;;0.38;;
57643;SDS011;43474;46.510;6.686;2022-11-04T12:53:27;0.88;;;0.45;;
57643;SDS011;43474;46.510;6.686;2022-11-04T12:56:17;1.17;;;0.40;;
57643;SDS011;43474;46.510;6.686;2022-11-04T13:01:24;0.20;;;0.10;;
57643;SDS011;43474;46.510;6.686;2022-11-04T13:04:02;1.40;;;0.25;;
57643;SDS011;43474;46.510;6.686;2022-11-04T13:09:22;2.60;;;0.35;;
57643;SDS011;43474;46.510;6.686;2022-11-04T13:12:06;0.10;;;0.10;;
57643;SDS011;43474;46.510;6.686;2022-11-04T13:17:13;0.43;;;0.10;;
57643;SDS011;43474;46.510;6.686;2022-11-04T13:19:47;0.20;;;0.10;;
57643;SDS011;43474;46.510;6.686;2022-11-04T13:22:17;0.30;;;0.20;;
57643;SDS011;43474;46.510;6.686;2022-11-04T13:24:51;0.05;;;0.05;;
57643;SDS011;43474;46.510;6.686;2022-11-04T13:27:22;0.30;;;0.20;;
57643;SDS011;43474;46.510;6.686;2022-11-04T13:30:06;0.60;;;0.20;;
57643;SDS011;43474;46.510;6.686;2022-11-04T13:35:28;0.10;;;0.00;;
57643;SDS011;43474;46.510;6.686;2022-11-04T13:38:03;1.13;;;0.10;;
57643;SDS011;43474;46.510;6.686;2022-11-04T13:40:41;0.43;;;0.10;;
57643;SDS011;43474;46.510;6.686;2022-11-04T13:43:21;0.10;;;0.10;;
57643;SDS011;43474;46.510;6.686;2022-11-04T13:48:35;0.20;;;0.20;;
57643;SDS011;43474;46.510;6.686;2022-11-04T13:51:16;1.05;;;0.20;;
57643;SDS011;43474;46.510;6.686;2022-11-04T13:56:08;0.17;;;0.10;;
57643;SDS011;43474;46.510;6.686;2022-11-04T13:58:36;0.13;;;0.13;;
57643;SDS011;43474;46.510;6.686;2022-11-04T14:04:00;0.10;;;0.10;;
57643;SDS011;43474;46.510;6.686;2022-11-04T14:06:46;0.10;;;0.10;;
57643;SDS011;43474;46.510;6.686;2022-11-04T14:09:23;0.20;;;0.10;;
57643;SDS011;43474;46.510;6.686;2022-11-04T14:19:58;0.25;;;0.10;;
57643;SDS011;43474;46.510;6.686;2022-11-04T14:22:29;0.00;;;0.00;;
57643;SDS011;43474;46.510;6.686;2022-11-04T14:24:59;0.85;;;0.10;;
57643;SDS011;43474;46.510;6.686;2022-11-04T14:27:37;0.10;;;0.10;;
57643;SDS011;43474;46.510;6.686;2022-11-04T14:30:05;0.00;;;0.00;;
57643;SDS011;43474;46.510;6.686;2022-11-04T14:32:34;0.10;;;0.10;;
57643;SDS011;43474;46.510;6.686;2022-11-04T14:35:05;0.10;;;0.10;;
57643;SDS011;43474;46.510;6.686;2022-11-04T14:37:33;0.17;;;0.10;;
57643;SDS011;43474;46.510;6.686;2022-11-04T14:40:02;0.10;;;0.10;;
57643;SDS011;43474;46.510;6.686;2022-11-04T14:42:50;0.52;;;0.15;;
57643;SDS011;43474;46.510;6.686;2022-11-04T14:45:21;0.03;;;0.03;;
57643;SDS011;43474;46.510;6.686;2022-11-04T14:47:55;0.13;;;0.13;;
57643;SDS011;43474;46.510;6.686;2022-11-04T14:50:25;0.47;;;0.20;;
57643;SDS011;43474;46.510;6.686;2022-11-04T14:52:56;0.35;;;0.00;;
57643;SDS011;43474;46.510;6.686;2022-11-04T14:55:27;0.05;;;0.05;;
57643;SDS011;43474;46.510;6.686;2022-11-04T14:57:55;0.30;;;0.10;;
57643;SDS011;43474;46.510;6.686;2022-11-04T15:05:39;0.08;;;0.00;;
57643;SDS011;43474;46.510;6.686;2022-11-04T15:13:45;0.30;;;0.20;;
57643;SDS011;43474;46.510;6.686;2022-11-04T15:16:13;0.00;;;0.00;;
57643;SDS011;43474;46.510;6.686;2022-11-04T15:18:43;0.10;;;0.10;;
57643;SDS011;43474;46.510;6.686;2022-11-04T15:21:12;0.30;;;0.10;;
57643;SDS011;43474;46.510;6.686;2022-11-04T15:23:40;0.57;;;0.05;;
57643;SDS011;43474;46.510;6.686;2022-11-04T15:26:43;0.10;;;0.10;;
57643;SDS011;43474;46.510;6.686;2022-11-04T15:29:06;0.65;;;0.20;;
57643;SDS011;43474;46.510;6.686;2022-11-04T15:31:34;0.20;;;0.05;;
57643;SDS011;43474;46.510;6.686;2022-11-04T15:34:03;0.10;;;0.10;;
57643;SDS011;43474;46.510;6.686;2022-11-04T15:36:34;0.00;;;0.00;;
57643;SDS011;43474;46.510;6.686;2022-11-04T15:39:05;0.20;;;0.10;;
57643;SDS011;43474;46.510;6.686;2022-11-04T15:41:37;0.00;;;0.00;;
57643;SDS011;43474;46.510;6.686;2022-11-04T15:44:27;0.38;;;0.00;;
57643;SDS011;43474;46.510;6.686;2022-11-04T15:46:58;1.17;;;0.20;;
57643;SDS011;43474;46.510;6.686;2022-11-04T15:49:27;0.22;;;0.10;;
57643;SDS011;43474;46.510;6.686;2022-11-04T15:51:58;0.10;;;0.10;;
57643;SDS011;43474;46.510;6.686;2022-11-04T15:54:33;0.10;;;0.10;;
57643;SDS011;43474;46.510;6.686;2022-11-04T15:57:11;0.10;;;0.10;;
57643;SDS011;43474;46.510;6.686;2022-11-04T15:59:44;0.00;;;0.00;;
57643;SDS011;43474;46.510;6.686;2022-11-04T16:02:16;0.00;;;0.00;;
57643;SDS011;43474;46.510;6.686;2022-11-04T16:07:35;0.80;;;0.10;;
57643;SDS011;43474;46.510;6.686;2022-11-04T16:10:25;0.63;;;0.10;;
57643;SDS011;43474;46.510;6.686;2022-11-04T16:13:02;0.00;;;0.00;;
57643;SDS011;43474;46.510;6.686;2022-11-04T16:15:50;0.22;;;0.10;;
57643;SDS011;43474;46.510;6.686;2022-11-04T16:18:43;0.52;;;0.10;;
57643;SDS011;43474;46.510;6.686;2022-11-04T16:21:27;0.38;;;0.20;;
57643;SDS011;43474;46.510;6.686;2022-11-04T16:23:59;0.87;;;0.20;;
57643;SDS011;43474;46.510;6.686;2022-11-04T16:26:37;0.88;;;0.30;;
57643;SDS011;43474;46.510;6.686;2022-11-04T16:29:12;2.17;;;0.65;;
57643;SDS011;43474;46.510;6.686;2022-11-04T16:31:43;0.47;;;0.30;;
57643;SDS011;43474;46.510;6.686;2022-11-04T16:34:10;1.65;;;0.85;;
57643;SDS011;43474;46.510;6.686;2022-11-04T16:36:37;1.50;;;0.20;;
57643;SDS011;43474;46.510;6.686;2022-11-04T16:39:03;4.53;;;1.23;;
57643;SDS011;43474;46.510;6.686;2022-11-04T16:41:34;0.70;;;0.50;;
57643;SDS011;43474;46.510;6.686;2022-11-04T16:44:03;1.15;;;0.20;;
57643;SDS011;43474;46.510;6.686;2022-11-04T16:46:33;0.60;;;0.40;;
57643;SDS011;43474;46.510;6.686;2022-11-04T16:48:59;0.63;;;0.40;;
57643;SDS011;43474;46.510;6.686;2022-11-04T16:51:24;0.20;;;0.20;;
57643;SDS011;43474;46.510;6.686;2022-11-04T16:53:51;0.68;;;0.20;;
57643;SDS011;43474;46.510;6.686;2022-11-04T16:56:18;0.50;;;0.20;;
57643;SDS011;43474;46.510;6.686;2022-11-04T16:58:46;0.68;;;0.40;;
57643;SDS011;43474;46.510;6.686;2022-11-04T17:01:12;1.00;;;0.50;;
57643;SDS011;43474;46.510;6.686;2022-11-04T17:03:42;2.50;;;0.70;;
57643;SDS011;43474;46.510;6.686;2022-11-04T17:06:09;0.90;;;0.47;;
57643;SDS011;43474;46.510;6.686;2022-11-04T17:08:36;0.40;;;0.30;;
57643;SDS011;43474;46.510;6.686;2022-11-04T17:11:02;0.52;;;0.38;;
57643;SDS011;43474;46.510;6.686;2022-11-04T17:13:28;0.88;;;0.40;;
57643;SDS011;43474;46.510;6.686;2022-11-04T17:15:54;0.98;;;0.30;;
57643;SDS011;43474;46.510;6.686;2022-11-04T17:18:22;1.63;;;0.60;;
57643;SDS011;43474;46.510;6.686;2022-11-04T17:20:49;1.17;;;0.55;;
57643;SDS011;43474;46.510;6.686;2022-11-04T17:23:16;1.95;;;0.90;;
57643;SDS011;43474;46.510;6.686;2022-11-04T17:25:43;0.95;;;0.70;;